Time;durP1;ratioP1;P1;durP2;ratioP2;P2;SDS_P1;SDS_P2;PMS_P1;PMS_P2;Temp;Humidity;BMP_temperature;BMP_pressure;BME280_temperature;BME280_humidity;BME280_pressure;Samples;Min_cycle;Max_cycle;Signal;HPM_P1;HPM_P2
2021/01/12 00:01:39;;;;;;;16.10;7.97;;;3.10;99.90;;;;;;4985138;28;20057;-87
2021/01/12 00:04:04;;;;;;;14.75;7.93;;;3.10;99.90;;;;;;4989995;28;20473;-87
2021/01/12 00:06:30;;;;;;;16.08;7.68;;;3.10;99.90;;;;;;4988872;28;20102;-87
2021/01/12 00:08:55;;;;;;;16.67;7.80;;;3.20;99.90;;;;;;4990611;28;20015;-87
2021/01/12 00:11:21;;;;;;;14.40;7.68;;;3.20;99.90;;;;;;4979626;28;20195;-87
2021/01/12 00:13:46;;;;;;;15.90;8.10;;;3.10;99.90;;;;;;4988613;28;20092;-87
2021/01/12 00:16:12;;;;;;;14.77;8.27;;;3.20;99.90;;;;;;4985407;28;20049;-87
2021/01/12 00:18:37;;;;;;;15.75;8.00;;;3.30;99.90;;;;;;4987599;28;20034;-88
2021/01/12 00:21:06;;;;;;;18.58;9.02;;;3.20;99.90;;;;;;4988006;28;20022;-85
2021/01/12 00:23:31;;;;;;;16.70;8.70;;;3.30;99.90;;;;;;4988229;28;20493;-85
2021/01/12 00:25:57;;;;;;;14.35;8.32;;;3.10;99.90;;;;;;4985946;28;20033;-88
2021/01/12 00:28:22;;;;;;;15.70;7.75;;;3.20;99.90;;;;;;4984811;28;20039;-83
2021/01/12 00:30:48;;;;;;;13.90;7.32;;;3.20;99.90;;;;;;4974421;28;20062;-86
2021/01/12 00:33:13;;;;;;;16.00;8.27;;;3.10;99.90;;;;;;4983723;28;20495;-87
2021/01/12 00:35:39;;;;;;;13.73;7.38;;;3.20;99.90;;;;;;4987360;28;20118;-84
2021/01/12 00:38:05;;;;;;;17.15;8.45;;;3.20;99.90;;;;;;4987822;28;20023;-86
2021/01/12 00:40:30;;;;;;;13.85;7.20;;;3.20;99.90;;;;;;4987303;28;20058;-86
2021/01/12 00:42:56;;;;;;;14.77;7.80;;;3.10;99.90;;;;;;4988633;28;20065;-86
2021/01/12 00:45:21;;;;;;;15.95;7.80;;;3.10;99.90;;;;;;4974394;28;20389;-85
2021/01/12 00:47:47;;;;;;;14.55;7.50;;;3.20;99.90;;;;;;4989626;28;21324;-87
2021/01/12 00:50:12;;;;;;;14.63;7.88;;;3.20;99.90;;;;;;4987380;28;20113;-85
2021/01/12 00:52:37;;;;;;;13.68;7.53;;;3.20;99.90;;;;;;4991887;28;20037;-85
2021/01/12 00:55:03;;;;;;;18.02;8.38;;;3.10;99.90;;;;;;4993580;28;20059;-86
2021/01/12 00:57:29;;;;;;;15.25;8.18;;;3.10;99.90;;;;;;4987606;28;20476;-86
2021/01/12 00:59:54;;;;;;;14.07;7.63;;;3.10;99.90;;;;;;4989936;28;20026;-86
2021/01/12 01:02:20;;;;;;;18.02;8.80;;;3.20;99.90;;;;;;4992316;28;20026;-85
2021/01/12 01:04:45;;;;;;;15.68;7.97;;;3.20;99.90;;;;;;4989787;28;20481;-87
2021/01/12 01:07:11;;;;;;;16.52;9.10;;;3.20;99.90;;;;;;4988472;28;20034;-86
2021/01/12 01:09:36;;;;;;;18.27;8.57;;;3.20;99.90;;;;;;4987934;28;20567;-87
2021/01/12 01:12:02;;;;;;;16.02;8.95;;;3.30;99.90;;;;;;4989625;28;20022;-87
2021/01/12 01:14:27;;;;;;;16.02;8.48;;;3.30;99.90;;;;;;4990972;28;20073;-86
2021/01/12 01:16:53;;;;;;;13.52;8.27;;;3.40;99.90;;;;;;4990231;28;20505;-83
2021/01/12 01:19:18;;;;;;;13.55;7.50;;;3.30;99.90;;;;;;4991573;28;20030;-87
2021/01/12 01:21:48;;;;;;;16.20;8.38;;;3.30;99.90;;;;;;4991524;28;20026;-88
2021/01/12 01:24:13;;;;;;;14.25;7.85;;;3.30;99.90;;;;;;4991443;28;20030;-85
2021/01/12 01:26:39;;;;;;;16.48;8.20;;;3.20;99.90;;;;;;4990375;28;20798;-87
2021/01/12 01:29:04;;;;;;;16.83;7.82;;;3.30;99.90;;;;;;4988789;28;20032;-85
2021/01/12 01:31:39;;;;;;;16.95;9.18;;;3.20;99.90;;;;;;4989884;28;20029;-84
2021/01/12 01:34:05;;;;;;;17.88;8.65;;;3.30;99.90;;;;;;4990762;28;20026;-81
2021/01/12 01:36:30;;;;;;;16.83;9.13;;;3.30;99.90;;;;;;4989841;28;21417;-87
2021/01/12 01:38:56;;;;;;;16.55;8.63;;;3.30;99.90;;;;;;4988308;28;20058;-87
2021/01/12 01:41:21;;;;;;;16.60;8.48;;;3.40;99.90;;;;;;4989280;28;20396;-87
2021/01/12 01:43:47;;;;;;;16.88;8.40;;;3.30;99.90;;;;;;4996279;28;20034;-86
2021/01/12 01:46:12;;;;;;;17.10;8.80;;;3.40;99.90;;;;;;4986160;28;20029;-84
2021/01/12 01:48:38;;;;;;;17.02;8.50;;;3.40;99.90;;;;;;4991373;28;20038;-87
2021/01/12 01:51:05;;;;;;;17.17;8.85;;;3.40;99.90;;;;;;4990221;28;20101;-85
2021/01/12 01:53:35;;;;;;;16.15;9.05;;;3.30;99.90;;;;;;4990318;28;20038;-83
2021/01/12 01:56:03;;;;;;;16.90;7.97;;;3.20;99.90;;;;;;4991770;28;20090;-84
2021/01/12 01:58:29;;;;;;;16.42;9.30;;;3.10;99.90;;;;;;4987314;28;20088;-85
2021/01/12 02:00:54;;;;;;;17.88;9.43;;;3.00;99.90;;;;;;4985197;28;20026;-84
2021/01/12 02:03:34;;;;;;;17.30;9.48;;;3.00;99.90;;;;;;4988203;28;20030;-87
2021/01/12 02:06:08;;;;;;;16.13;8.50;;;3.00;99.90;;;;;;4990761;28;20092;-88
2021/01/12 02:09:00;;;;;;;17.70;9.50;;;2.80;99.90;;;;;;4988906;28;20027;-85
2021/01/12 02:11:29;;;;;;;18.83;9.38;;;2.80;99.90;;;;;;4987701;28;20113;-86
2021/01/12 02:14:04;;;;;;;16.13;8.88;;;2.70;99.90;;;;;;4990399;28;20031;-87
2021/01/12 02:16:30;;;;;;;19.33;9.77;;;2.60;99.90;;;;;;4980697;28;20412;-87
2021/01/12 02:18:57;;;;;;;17.10;9.60;;;2.50;99.90;;;;;;4990468;28;20130;-84
2021/01/12 02:21:23;;;;;;;21.08;10.57;;;2.50;99.90;;;;;;4990154;28;20110;-86
2021/01/12 02:23:54;;;;;;;18.60;9.93;;;2.50;99.90;;;;;;4991059;28;20030;-87
2021/01/12 02:26:20;;;;;;;16.17;7.63;;;2.50;99.90;;;;;;4988042;28;20042;-88
2021/01/12 02:28:45;;;;;;;18.65;8.88;;;2.50;99.90;;;;;;4989942;28;20057;-84
2021/01/12 02:31:11;;;;;;;20.42;9.95;;;2.40;99.90;;;;;;4989336;28;20649;-88
2021/01/12 02:33:40;;;;;;;21.33;11.52;;;2.50;99.90;;;;;;4990447;28;20089;-86
2021/01/12 02:36:12;;;;;;;24.27;11.93;;;2.40;99.90;;;;;;4987648;28;20022;-86
2021/01/12 02:38:38;;;;;;;22.10;11.50;;;2.50;99.90;;;;;;4983352;28;20037;-85
2021/01/12 02:41:09;;;;;;;18.92;10.30;;;2.40;99.90;;;;;;4988046;28;20042;-86
2021/01/12 02:43:34;;;;;;;;;;;2.40;99.90;;;;;;4990089;28;20041;-86
2021/01/12 02:46:00;;;;;;;22.55;10.95;;;2.50;99.90;;;;;;4991242;28;19996;-87
2021/01/12 02:48:25;;;;;;;20.05;10.93;;;2.50;99.90;;;;;;4981718;28;20018;-87
2021/01/12 02:50:51;;;;;;;21.48;11.43;;;2.50;99.90;;;;;;4985653;28;20126;-88
2021/01/12 02:53:16;;;;;;;21.77;10.90;;;2.40;99.90;;;;;;4984962;28;20026;-88
2021/01/12 02:55:42;;;;;;;21.50;11.05;;;2.40;99.90;;;;;;4985610;28;20033;-88
2021/01/12 02:58:07;;;;;;;21.60;11.02;;;2.40;99.90;;;;;;4987997;28;20508;-87
2021/01/12 03:00:33;;;;;;;19.33;10.85;;;2.40;99.90;;;;;;4989705;28;20030;-88
2021/01/12 03:02:58;;;;;;;19.77;10.55;;;2.40;99.90;;;;;;4993704;28;20157;-87
2021/01/12 03:05:24;;;;;;;20.13;10.57;;;2.40;99.90;;;;;;4989214;28;20592;-88
2021/01/12 03:07:49;;;;;;;20.70;10.10;;;2.40;99.90;;;;;;4988384;28;20030;-87
2021/01/12 03:10:15;;;;;;;20.35;10.75;;;2.40;99.90;;;;;;4988791;28;20489;-87
2021/01/12 03:12:40;;;;;;;21.50;10.57;;;2.40;99.90;;;;;;4988657;28;20030;-88
2021/01/12 03:15:06;;;;;;;20.65;10.73;;;2.40;99.90;;;;;;4989590;28;20026;-87
2021/01/12 03:17:32;;;;;;;20.88;10.93;;;2.40;99.90;;;;;;4988035;28;20065;-89
2021/01/12 03:19:57;;;;;;;17.88;9.43;;;2.50;99.90;;;;;;4989331;28;20053;-88
2021/01/12 03:22:23;;;;;;;20.67;11.27;;;2.40;99.90;;;;;;4989619;28;20057;-89
2021/01/12 03:24:48;;;;;;;23.10;11.20;;;2.50;99.90;;;;;;4989637;28;20037;-90
2021/01/12 03:27:13;;;;;;;20.65;10.68;;;2.50;99.90;;;;;;4987357;28;20118;-91
2021/01/12 03:29:39;;;;;;;18.77;10.65;;;2.50;99.90;;;;;;4988892;28;20512;-89
2021/01/12 03:32:04;;;;;;;19.77;9.55;;;2.50;99.90;;;;;;4990448;28;20432;-87
2021/01/12 03:34:30;;;;;;;19.45;9.73;;;2.50;99.90;;;;;;4982554;28;20138;-90
2021/01/12 03:36:55;;;;;;;13.48;7.90;;;2.50;99.90;;;;;;4987644;28;20065;-90
2021/01/12 03:39:21;;;;;;;18.27;9.30;;;2.40;99.90;;;;;;4982773;28;20029;-89
2021/01/12 03:41:47;;;;;;;17.80;9.32;;;2.40;99.90;;;;;;4987204;28;20049;-88
2021/01/12 03:44:12;;;;;;;19.45;10.20;;;2.50;99.90;;;;;;4988566;28;20034;-85
2021/01/12 03:46:38;;;;;;;18.48;10.23;;;2.50;99.90;;;;;;4981999;28;20031;-87
2021/01/12 03:49:05;;;;;;;18.73;9.70;;;2.60;99.90;;;;;;4988571;28;20038;-85
2021/01/12 03:51:30;;;;;;;15.73;9.15;;;2.60;99.90;;;;;;4996633;28;20026;-86
2021/01/12 03:53:56;;;;;;;19.23;10.05;;;2.60;99.90;;;;;;4987393;28;20538;-85
2021/01/12 03:56:21;;;;;;;18.05;10.07;;;2.70;99.90;;;;;;4988108;28;20022;-91
2021/01/12 03:58:47;;;;;;;18.25;9.32;;;2.70;99.90;;;;;;4985047;28;20022;-89
2021/01/12 04:01:13;;;;;;;18.73;10.63;;;2.60;99.90;;;;;;4987317;28;20014;-87
2021/01/12 04:03:42;;;;;;;16.50;9.50;;;2.60;99.90;;;;;;4975622;28;20122;-88
2021/01/12 04:06:16;;;;;;;19.65;9.63;;;2.60;99.90;;;;;;4979479;28;20027;-91
2021/01/12 04:08:46;;;;;;;14.50;9.05;;;2.60;99.90;;;;;;4978970;28;20041;-88
2021/01/12 04:11:13;;;;;;;18.02;9.85;;;2.60;99.90;;;;;;4982806;28;20027;-89
2021/01/12 04:13:39;;;;;;;18.13;9.25;;;2.70;99.90;;;;;;4979126;28;20506;-86
2021/01/12 04:16:05;;;;;;;17.15;9.52;;;2.70;99.90;;;;;;4981828;28;20113;-89
2021/01/12 04:18:30;;;;;;;18.15;10.18;;;2.70;99.90;;;;;;4985427;28;20800;-87
2021/01/12 04:20:56;;;;;;;16.52;9.05;;;2.70;99.90;;;;;;4988518;28;20034;-88
2021/01/12 04:23:21;;;;;;;16.30;9.70;;;2.80;99.90;;;;;;4988443;28;20448;-85
2021/01/12 04:25:47;;;;;;;16.52;8.73;;;2.80;99.90;;;;;;5004153;28;20030;-86
2021/01/12 04:28:12;;;;;;;18.73;9.27;;;2.70;99.90;;;;;;4985003;28;20018;-83
2021/01/12 04:30:38;;;;;;;15.98;8.70;;;2.70;99.90;;;;;;4985903;28;20101;-85
2021/01/12 04:33:03;;;;;;;14.73;8.50;;;2.70;99.90;;;;;;4989732;28;20030;-87
2021/01/12 04:35:29;;;;;;;16.42;9.77;;;2.70;99.90;;;;;;4990877;28;20433;-85
2021/01/12 04:37:55;;;;;;;16.17;8.98;;;2.70;99.90;;;;;;4992043;28;20026;-85
2021/01/12 04:40:20;;;;;;;15.38;8.73;;;2.60;99.90;;;;;;4988282;28;20046;-84
2021/01/12 04:42:46;;;;;;;15.27;8.93;;;2.60;99.90;;;;;;4994644;28;20049;-85
2021/01/12 04:45:12;;;;;;;15.75;9.18;;;2.70;99.90;;;;;;4988017;28;20101;-86
2021/01/12 04:47:37;;;;;;;17.42;9.75;;;2.80;99.90;;;;;;4991477;28;20023;-86
2021/01/12 04:50:04;;;;;;;17.58;10.38;;;2.80;99.90;;;;;;4984081;28;20033;-85
2021/01/12 04:52:30;;;;;;;16.50;9.27;;;2.80;99.90;;;;;;4990435;28;20034;-85
2021/01/12 04:55:01;;;;;;;14.15;8.77;;;2.70;99.90;;;;;;4973832;28;20693;-86
2021/01/12 04:57:27;;;;;;;17.05;9.15;;;2.70;99.90;;;;;;4992146;28;20034;-86
2021/01/12 04:59:53;;;;;;;15.50;8.88;;;2.80;99.90;;;;;;4980410;28;20494;-86
2021/01/12 05:02:19;;;;;;;15.65;9.65;;;2.80;99.90;;;;;;4990232;28;20060;-85
2021/01/12 05:04:44;;;;;;;16.27;9.30;;;2.80;99.90;;;;;;4989537;28;20385;-84
2021/01/12 05:07:10;;;;;;;16.80;9.85;;;2.80;99.90;;;;;;4990364;28;20031;-84
2021/01/12 05:09:38;;;;;;;17.58;9.27;;;2.80;99.90;;;;;;4984326;28;20034;-85
2021/01/12 05:12:05;;;;;;;15.75;9.10;;;2.80;99.90;;;;;;4988997;28;20038;-83
2021/01/12 05:14:32;;;;;;;17.13;9.18;;;2.80;99.90;;;;;;4984740;28;20555;-85
2021/01/12 05:16:58;;;;;;;16.73;9.00;;;2.80;99.90;;;;;;4987412;28;21604;-85
2021/01/12 05:19:28;;;;;;;17.15;10.05;;;2.80;99.90;;;;;;4976392;28;20034;-85
2021/01/12 05:22:03;;;;;;;16.20;9.50;;;2.80;99.90;;;;;;4987243;28;20046;-87
2021/01/12 05:24:30;;;;;;;19.92;9.80;;;2.80;99.90;;;;;;4991377;28;20027;-82
2021/01/12 05:27:06;;;;;;;19.17;10.20;;;2.90;99.90;;;;;;4990029;28;20164;-84
2021/01/12 05:29:34;;;;;;;16.55;9.38;;;2.90;99.90;;;;;;4989771;28;20030;-85
2021/01/12 05:32:05;;;;;;;16.75;8.75;;;2.80;99.90;;;;;;4992571;28;20481;-85
2021/01/12 05:34:35;;;;;;;17.52;9.40;;;2.80;99.90;;;;;;4979107;28;20058;-84
2021/01/12 05:37:04;;;;;;;15.38;9.55;;;2.80;99.90;;;;;;4987419;28;20050;-85
2021/01/12 05:39:38;;;;;;;14.27;9.18;;;2.80;99.90;;;;;;4984876;28;20494;-84
2021/01/12 05:42:06;;;;;;;17.02;9.57;;;2.80;99.90;;;;;;4987453;28;20029;-84
2021/01/12 05:44:36;;;;;;;17.13;9.95;;;2.80;99.90;;;;;;4988256;28;20031;-85
2021/01/12 05:47:02;;;;;;;18.45;10.45;;;2.90;99.90;;;;;;4989847;28;20472;-84
2021/01/12 05:49:29;;;;;;;15.68;9.90;;;2.90;99.90;;;;;;4984434;28;20386;-85
2021/01/12 05:51:54;;;;;;;15.20;9.55;;;2.90;99.90;;;;;;4989104;28;20061;-85
2021/01/12 05:54:26;;;;;;;17.92;9.75;;;3.00;99.90;;;;;;4989498;28;20397;-84
2021/01/12 05:57:02;;;;;;;19.95;10.90;;;3.00;99.90;;;;;;4985245;28;20050;-84
2021/01/12 05:59:37;;;;;;;18.30;10.32;;;2.90;99.90;;;;;;4994687;28;20489;-84
2021/01/12 06:02:08;;;;;;;14.95;9.02;;;2.90;99.90;;;;;;4988117;28;20027;-83
2021/01/12 06:04:34;;;;;;;14.13;8.95;;;2.90;99.90;;;;;;4989056;28;20089;-85
2021/01/12 06:07:00;;;;;;;15.38;9.45;;;3.00;99.90;;;;;;4987157;28;20056;-83
2021/01/12 06:09:26;;;;;;;17.30;9.80;;;3.00;99.90;;;;;;4988220;28;20030;-85
2021/01/12 06:11:53;;;;;;;16.42;9.55;;;3.00;99.90;;;;;;4973175;28;20448;-83
2021/01/12 06:14:27;;;;;;;16.13;9.82;;;3.00;99.90;;;;;;4982740;28;20624;-86
2021/01/12 06:16:54;;;;;;;19.33;9.60;;;3.00;99.90;;;;;;4989841;28;20030;-84
2021/01/12 06:19:21;;;;;;;16.40;9.48;;;2.90;99.90;;;;;;4988964;28;20662;-85
2021/01/12 06:22:07;;;;;;;14.43;8.90;;;2.90;99.90;;;;;;4989462;28;20088;-85
2021/01/12 06:24:40;;;;;;;15.80;10.05;;;2.90;99.90;;;;;;4981786;28;20519;-83
2021/01/12 06:27:17;;;;;;;17.48;9.57;;;2.90;99.90;;;;;;4982912;28;20068;-84
2021/01/12 06:29:44;;;;;;;15.63;9.10;;;2.90;99.90;;;;;;4991436;28;20124;-85
2021/01/12 06:32:13;;;;;;;15.68;9.85;;;2.90;99.90;;;;;;4989307;28;20136;-83
2021/01/12 06:34:40;;;;;;;15.32;8.68;;;3.00;99.90;;;;;;4987117;28;20034;-75
2021/01/12 06:37:08;;;;;;;17.17;8.85;;;3.00;99.90;;;;;;4990563;28;20038;-76
2021/01/12 06:39:43;;;;;;;16.33;9.80;;;2.90;99.90;;;;;;4988227;28;20049;-76
2021/01/12 06:42:10;;;;;;;16.00;9.40;;;3.00;99.90;;;;;;4996438;28;20027;-76
2021/01/12 06:44:37;;;;;;;15.48;9.38;;;3.00;99.90;;;;;;4982964;28;20049;-75
2021/01/12 06:47:06;;;;;;;15.88;9.57;;;3.00;99.90;;;;;;4985262;28;20026;-76
2021/01/12 06:49:32;;;;;;;16.27;9.40;;;3.00;99.90;;;;;;4988315;28;20536;-76
2021/01/12 06:52:05;;;;;;;17.90;9.95;;;3.00;99.90;;;;;;4995126;28;20050;-76
2021/01/12 06:54:39;;;;;;;17.60;10.35;;;3.00;99.90;;;;;;4989201;28;20112;-76
2021/01/12 06:57:09;;;;;;;18.27;10.45;;;3.00;99.90;;;;;;4986555;28;20421;-75
2021/01/12 06:59:46;;;;;;;19.08;11.18;;;3.00;99.90;;;;;;4990828;28;20393;-75
2021/01/12 07:02:28;;;;;;;14.98;9.45;;;3.00;99.90;;;;;;4985029;28;20034;-76
2021/01/12 07:05:10;;;;;;;13.15;8.02;;;3.10;99.90;;;;;;4989986;28;20031;-76
2021/01/12 07:07:41;;;;;;;15.95;9.38;;;3.10;99.90;;;;;;4988715;28;20030;-76
2021/01/12 07:10:09;;;;;;;15.13;9.35;;;3.10;99.90;;;;;;4988335;28;20508;-77
2021/01/12 07:12:36;;;;;;;17.05;9.73;;;3.10;99.90;;;;;;4983126;28;20066;-75
2021/01/12 07:15:05;;;;;;;18.23;9.75;;;3.10;99.90;;;;;;4990395;28;20527;-75
2021/01/12 07:17:33;;;;;;;16.73;9.38;;;3.10;99.90;;;;;;4987247;28;20030;-75
2021/01/12 07:20:08;;;;;;;17.77;10.07;;;3.10;99.90;;;;;;4985351;28;20117;-75
2021/01/12 07:22:35;;;;;;;15.25;8.60;;;3.20;99.90;;;;;;4983817;28;20035;-82
2021/01/12 07:25:06;;;;;;;18.67;10.38;;;3.20;99.90;;;;;;4987208;28;20026;-74
2021/01/12 07:27:32;;;;;;;14.65;8.52;;;3.20;99.90;;;;;;4979035;28;20172;-77
2021/01/12 07:30:01;;;;;;;17.20;9.20;;;3.10;99.90;;;;;;4982013;28;20568;-76
2021/01/12 07:32:38;;;;;;;14.27;8.77;;;3.10;99.90;;;;;;4984631;28;20038;-77
2021/01/12 07:35:07;;;;;;;16.02;9.15;;;3.10;99.90;;;;;;4984615;28;20109;-76
2021/01/12 07:37:41;;;;;;;14.23;8.43;;;3.10;99.90;;;;;;4984668;28;20105;-76
2021/01/12 07:40:14;;;;;;;14.48;8.95;;;3.10;99.90;;;;;;4983438;28;20137;-76
2021/01/12 07:43:06;;;;;;;13.85;8.10;;;3.10;99.90;;;;;;4982852;28;20113;-77
2021/01/12 07:45:35;;;;;;;14.25;9.02;;;3.20;99.90;;;;;;4981918;28;20114;-77
2021/01/12 07:48:02;;;;;;;15.15;8.90;;;3.10;99.90;;;;;;4981233;28;20033;-76
2021/01/12 07:50:29;;;;;;;14.25;8.10;;;3.10;99.90;;;;;;4983154;28;20598;-77
2021/01/12 07:52:56;;;;;;;13.68;8.65;;;3.20;99.90;;;;;;4985616;28;20018;-77
2021/01/12 07:55:22;;;;;;;13.15;8.02;;;3.20;99.90;;;;;;4984394;28;20092;-77
2021/01/12 07:57:48;;;;;;;14.85;8.48;;;3.30;99.90;;;;;;4984760;28;20116;-77
2021/01/12 08:00:16;;;;;;;13.45;7.70;;;3.30;99.90;;;;;;4984583;28;20056;-77
2021/01/12 08:02:52;;;;;;;15.80;8.68;;;3.30;99.90;;;;;;4981610;28;20022;-77
2021/01/12 08:05:21;;;;;;;15.40;8.55;;;3.30;99.90;;;;;;4986148;28;20018;-76
2021/01/12 08:07:47;;;;;;;12.90;7.65;;;3.30;99.90;;;;;;4984900;28;20022;-76
2021/01/12 08:10:13;;;;;;;12.48;8.05;;;3.40;99.90;;;;;;4983210;28;20038;-77
2021/01/12 08:12:38;;;;;;;12.05;6.97;;;3.40;99.90;;;;;;4982521;28;20643;-77
2021/01/12 08:15:15;;;;;;;14.18;7.40;;;3.40;99.90;;;;;;4985644;28;20061;-77
2021/01/12 08:17:48;;;;;;;8.88;6.30;;;3.30;99.90;;;;;;4984200;28;20427;-77
2021/01/12 08:20:18;;;;;;;10.65;7.03;;;3.30;99.90;;;;;;4986001;28;20030;-77
2021/01/12 08:22:54;;;;;;;9.10;6.38;;;3.30;99.90;;;;;;4977690;28;20026;-77
2021/01/12 08:25:20;;;;;;;11.68;7.03;;;3.30;99.90;;;;;;4984455;28;20092;-77
2021/01/12 08:27:50;;;;;;;9.02;6.13;;;3.40;99.90;;;;;;4981377;28;20153;-77
2021/01/12 08:30:23;;;;;;;8.63;6.05;;;3.30;99.90;;;;;;4986117;28;20111;-77
2021/01/12 08:33:00;;;;;;;8.63;6.10;;;3.40;99.90;;;;;;4985065;28;20485;-77
2021/01/12 08:35:29;;;;;;;9.18;5.47;;;3.40;99.90;;;;;;4985997;28;20042;-77
2021/01/12 08:37:59;;;;;;;13.90;6.40;;;3.40;99.90;;;;;;4985327;28;20050;-77
2021/01/12 08:40:28;;;;;;;9.00;5.72;;;3.40;99.90;;;;;;4982780;28;20070;-76
2021/01/12 08:42:55;;;;;;;7.97;5.57;;;3.40;99.90;;;;;;4984426;28;20026;-76
2021/01/12 08:45:21;;;;;;;9.57;5.90;;;3.50;99.90;;;;;;4984413;28;20029;-77
2021/01/12 08:47:47;;;;;;;11.43;6.78;;;3.40;99.90;;;;;;4987264;28;20065;-76
2021/01/12 08:50:13;;;;;;;8.65;6.05;;;3.50;99.90;;;;;;4982769;28;20030;-76
2021/01/12 08:52:45;;;;;;;8.38;5.25;;;3.50;99.90;;;;;;4985347;28;20045;-76
2021/01/12 08:55:21;;;;;;;6.97;4.70;;;3.50;99.90;;;;;;4989674;28;20851;-76
2021/01/12 08:57:57;;;;;;;8.85;5.25;;;3.50;99.90;;;;;;4981284;28;20054;-76
2021/01/12 09:00:34;;;;;;;8.98;5.50;;;3.40;99.90;;;;;;4982759;28;20026;-81
2021/01/12 09:03:00;;;;;;;6.97;4.90;;;3.40;99.90;;;;;;4983692;28;20030;-73
2021/01/12 09:05:29;;;;;;;8.50;5.40;;;3.40;99.90;;;;;;4977801;28;20018;-76
2021/01/12 09:08:04;;;;;;;6.28;4.70;;;3.40;99.90;;;;;;4983049;28;20034;-76
2021/01/12 09:10:30;;;;;;;8.02;4.35;;;3.40;99.90;;;;;;4981360;28;20046;-76
2021/01/12 09:12:56;;;;;;;10.40;5.00;;;3.50;99.90;;;;;;4984664;28;20034;-76
2021/01/12 09:15:28;;;;;;;9.02;5.10;;;3.40;99.90;;;;;;4986092;28;20034;-75
2021/01/12 09:18:19;;;;;;;7.85;5.03;;;3.40;99.90;;;;;;4982818;28;20050;-76
2021/01/12 09:20:53;;;;;;;6.97;4.75;;;3.40;99.90;;;;;;4985593;28;20544;-77
2021/01/12 09:23:19;;;;;;;7.03;4.63;;;3.40;99.90;;;;;;4988126;28;20436;-79
2021/01/12 09:25:52;;;;;;;7.90;4.68;;;3.50;99.90;;;;;;4988891;28;20031;-78
2021/01/12 09:28:23;;;;;;;8.10;4.82;;;3.50;99.90;;;;;;4987026;28;20032;-76
2021/01/12 09:30:49;;;;;;;7.60;4.90;;;3.50;99.90;;;;;;4989265;28;20034;-76
2021/01/12 09:33:23;;;;;;;6.57;4.18;;;3.50;99.90;;;;;;4989731;28;20026;-75
2021/01/12 09:35:59;;;;;;;6.13;4.28;;;3.50;99.90;;;;;;4986276;28;20030;-77
2021/01/12 09:38:37;;;;;;;7.85;4.43;;;3.50;99.90;;;;;;4989303;28;20121;-76
2021/01/12 09:41:04;;;;;;;6.07;4.22;;;3.60;99.90;;;;;;4985553;28;20057;-77
2021/01/12 09:43:29;;;;;;;5.35;4.00;;;3.60;99.90;;;;;;4988206;28;20052;-77
2021/01/12 09:45:58;;;;;;;5.85;4.10;;;3.60;99.90;;;;;;4985950;28;20034;-77
2021/01/12 09:48:24;;;;;;;6.72;4.13;;;3.60;99.90;;;;;;4987867;28;20023;-78
2021/01/12 09:50:49;;;;;;;7.65;4.28;;;3.70;99.90;;;;;;4987216;28;20023;-77
2021/01/12 09:53:15;;;;;;;5.18;3.92;;;3.60;99.90;;;;;;4988507;28;20031;-77
2021/01/12 09:55:41;;;;;;;5.80;3.85;;;3.60;99.90;;;;;;4990839;28;20034;-77
2021/01/12 09:58:07;;;;;;;7.40;4.20;;;3.60;99.90;;;;;;4985873;28;20473;-77
2021/01/12 10:00:32;;;;;;;5.95;3.95;;;3.60;99.90;;;;;;4988624;28;20041;-83
2021/01/12 10:02:58;;;;;;;5.85;3.80;;;3.60;99.90;;;;;;4987058;28;20109;-84
2021/01/12 10:05:23;;;;;;;5.97;3.65;;;3.70;99.90;;;;;;4986074;28;20393;-81
2021/01/12 10:07:49;;;;;;;6.32;3.67;;;3.60;99.90;;;;;;4983914;28;20034;-79
2021/01/12 10:10:14;;;;;;;6.57;4.05;;;3.60;99.90;;;;;;4983457;28;20125;-79
2021/01/12 10:12:43;;;;;;;5.07;3.33;;;3.70;99.90;;;;;;4985140;28;20543;-79
2021/01/12 10:15:08;;;;;;;5.18;3.53;;;3.60;99.90;;;;;;4985318;28;20273;-79
2021/01/12 10:17:34;;;;;;;4.90;3.38;;;3.60;99.90;;;;;;4985578;28;20394;-78
2021/01/12 10:20:00;;;;;;;5.55;4.00;;;3.60;99.90;;;;;;4988557;28;20109;-78
2021/01/12 10:22:26;;;;;;;4.95;3.40;;;3.70;99.90;;;;;;4985121;28;20189;-78
2021/01/12 10:24:52;;;;;;;5.35;3.30;;;3.80;99.90;;;;;;4988249;28;20038;-78
2021/01/12 10:27:19;;;;;;;6.93;3.92;;;3.80;99.90;;;;;;4984571;28;20109;-78
2021/01/12 10:29:45;;;;;;;5.57;3.58;;;3.80;99.90;;;;;;4986106;28;20165;-78
2021/01/12 10:32:12;;;;;;;4.45;3.20;;;3.80;99.90;;;;;;4986816;28;20105;-79
2021/01/12 10:34:38;;;;;;;4.95;3.92;;;3.80;99.90;;;;;;4986359;28;20121;-80
2021/01/12 10:37:03;;;;;;;4.72;3.67;;;3.80;99.90;;;;;;4986183;28;20156;-79
2021/01/12 10:39:29;;;;;;;4.22;3.03;;;3.80;99.90;;;;;;4985764;28;20473;-79
2021/01/12 10:41:55;;;;;;;5.53;3.78;;;3.70;99.90;;;;;;4986847;28;20025;-79
2021/01/12 10:44:55;;;;;;;6.07;3.97;;;3.80;99.90;;;;;;5082077;28;20416;-77
2021/01/12 10:47:20;;;;;;;5.05;3.60;;;3.80;99.90;;;;;;5079490;28;20113;-79
2021/01/12 10:49:49;;;;;;;5.38;3.35;;;3.80;99.90;;;;;;5078135;28;20077;-79
2021/01/12 10:52:14;;;;;;;4.50;3.40;;;3.80;99.90;;;;;;5076546;28;20032;-80
2021/01/12 10:54:44;;;;;;;5.03;3.60;;;3.80;99.90;;;;;;5084466;28;20031;-80
2021/01/12 10:57:09;;;;;;;5.25;3.80;;;3.90;99.90;;;;;;5078705;28;20027;-86
2021/01/12 10:59:35;;;;;;;6.15;3.88;;;4.00;99.90;;;;;;5080795;28;20024;-81
2021/01/12 11:02:03;;;;;;;5.65;3.83;;;4.00;99.90;;;;;;5075382;28;20485;-81
2021/01/12 11:04:29;;;;;;;4.90;3.63;;;4.00;99.90;;;;;;5075604;28;20036;-80
2021/01/12 11:06:55;;;;;;;8.13;4.18;;;4.10;99.90;;;;;;5080887;28;20031;-81
2021/01/12 11:09:22;;;;;;;5.95;3.40;;;4.00;99.90;;;;;;5078001;28;20027;-82
2021/01/12 11:11:48;;;;;;;5.53;3.65;;;4.00;99.90;;;;;;5082674;28;20028;-82
2021/01/12 11:14:15;;;;;;;5.32;3.58;;;4.00;99.90;;;;;;5077568;28;20040;-81
2021/01/12 11:16:40;;;;;;;7.88;4.38;;;3.90;99.90;;;;;;5082339;28;20028;-82
2021/01/12 11:19:08;;;;;;;6.93;3.38;;;4.00;99.90;;;;;;5081523;28;20634;-82
2021/01/12 11:21:46;;;;;;;5.35;3.75;;;4.00;99.90;;;;;;5082768;28;20031;-82
2021/01/12 11:24:14;;;;;;;4.82;3.30;;;4.00;99.90;;;;;;5082985;28;20037;-82
2021/01/12 11:26:43;;;;;;;6.45;4.07;;;4.10;99.90;;;;;;5081038;28;20029;-83
2021/01/12 11:29:10;;;;;;;6.45;3.75;;;4.10;99.90;;;;;;5082063;28;20032;-82
2021/01/12 11:31:36;;;;;;;6.25;4.30;;;4.00;99.90;;;;;;5085000;28;20050;-83
2021/01/12 11:34:01;;;;;;;6.63;4.53;;;4.00;99.90;;;;;;5079063;28;20040;-82
2021/01/12 11:36:34;;;;;;;5.68;3.55;;;4.10;99.90;;;;;;5078386;28;20077;-82
2021/01/12 11:39:00;;;;;;;5.90;4.13;;;4.00;99.90;;;;;;5077167;28;20028;-82
2021/01/12 11:41:26;;;;;;;5.82;3.60;;;4.10;99.90;;;;;;5083974;28;20039;-82
2021/01/12 11:43:52;;;;;;;7.40;4.38;;;4.10;99.90;;;;;;5083757;28;20125;-82
2021/01/12 11:46:27;;;;;;;7.60;3.90;;;4.10;99.90;;;;;;5083081;28;20486;-81
2021/01/12 11:48:52;;;;;;;5.38;3.80;;;4.10;99.90;;;;;;5083687;28;20099;-82
2021/01/12 11:51:18;;;;;;;5.78;3.97;;;4.10;99.90;;;;;;5085696;28;20115;-81
2021/01/12 11:53:43;;;;;;;7.63;5.47;;;4.10;99.90;;;;;;5079984;28;20043;-81
2021/01/12 11:56:09;;;;;;;7.93;4.18;;;4.20;99.90;;;;;;5068500;28;20034;-81
2021/01/12 11:58:34;;;;;;;6.10;4.38;;;4.20;99.90;;;;;;5070007;28;20509;-81
2021/01/12 12:01:00;;;;;;;6.05;4.07;;;4.20;99.90;;;;;;5070525;28;20051;-81
2021/01/12 12:03:25;;;;;;;8.32;4.43;;;4.30;99.90;;;;;;5064902;28;20040;-82
2021/01/12 12:05:51;;;;;;;5.40;3.97;;;4.30;99.90;;;;;;5066337;28;20124;-83
2021/01/12 12:08:16;;;;;;;6.55;4.18;;;4.20;99.90;;;;;;5066112;28;20024;-83
2021/01/12 12:10:42;;;;;;;5.68;3.88;;;4.30;99.90;;;;;;5071568;28;20040;-82
2021/01/12 12:13:07;;;;;;;7.47;4.15;;;4.30;99.90;;;;;;5076055;28;20036;-83
2021/01/12 12:15:33;;;;;;;6.20;4.20;;;4.30;99.90;;;;;;5067132;28;20505;-82
2021/01/12 12:17:58;;;;;;;6.03;4.03;;;4.30;99.90;;;;;;5066264;28;20170;-81
2021/01/12 12:20:25;;;;;;;5.50;3.95;;;4.30;99.90;;;;;;5065149;28;20027;-81
2021/01/12 12:22:50;;;;;;;8.05;4.15;;;4.40;99.90;;;;;;5068979;28;20043;-81
2021/01/12 12:25:16;;;;;;;7.00;3.83;;;4.40;99.90;;;;;;5068507;28;20025;-82
2021/01/12 12:27:41;;;;;;;6.90;4.15;;;4.40;99.90;;;;;;5067743;28;20055;-81
2021/01/12 12:30:08;;;;;;;6.43;4.15;;;4.40;99.90;;;;;;5064837;28;20016;-81
2021/01/12 12:32:34;;;;;;;6.80;4.30;;;4.50;99.90;;;;;;5073056;28;20124;-82
2021/01/12 12:34:59;;;;;;;6.40;4.03;;;4.50;99.90;;;;;;5073344;28;20245;-83
2021/01/12 12:37:25;;;;;;;7.80;4.22;;;4.60;99.90;;;;;;5070610;28;20073;-82
2021/01/12 12:39:50;;;;;;;7.53;4.00;;;4.50;99.90;;;;;;5075398;28;20044;-82
2021/01/12 12:42:16;;;;;;;5.95;3.92;;;4.60;99.90;;;;;;5075900;28;20024;-82
2021/01/12 12:44:41;;;;;;;6.15;4.25;;;4.60;99.90;;;;;;5073897;28;20044;-82
2021/01/12 12:47:07;;;;;;;5.57;4.07;;;4.60;99.90;;;;;;5074598;28;20085;-81
2021/01/12 12:49:33;;;;;;;6.90;3.60;;;4.60;99.90;;;;;;5071475;28;20111;-82
2021/01/12 12:51:58;;;;;;;6.90;4.70;;;4.60;99.90;;;;;;5073104;28;20043;-81
2021/01/12 12:54:24;;;;;;;7.93;4.40;;;4.60;99.90;;;;;;5075000;28;20033;-81